createdAt,value
2016-11-10T00:00:17.583Z,0
2016-11-10T00:01:26.301Z,0
2016-11-10T00:02:34.996Z,0
2016-11-10T00:03:43.686Z,0
2016-11-10T00:04:52.375Z,0
2016-11-10T00:06:01.056Z,0
2016-11-10T00:07:09.741Z,0
2016-11-10T00:08:18.430Z,0
2016-11-10T00:09:27.113Z,0
2016-11-10T00:10:35.803Z,0
2016-11-10T00:11:44.486Z,0
2016-11-10T00:12:53.169Z,0
2016-11-10T00:14:01.857Z,0
2016-11-10T00:15:10.540Z,0
2016-11-10T00:16:19.226Z,0
2016-11-10T00:17:27.913Z,0
2016-11-10T00:18:36.603Z,0
2016-11-10T00:19:45.289Z,0
2016-11-10T00:20:54.001Z,0
2016-11-10T00:22:02.686Z,0
2016-11-10T00:23:11.371Z,0
2016-11-10T00:24:20.058Z,0
2016-11-10T00:25:28.741Z,0
2016-11-10T00:26:37.421Z,0
2016-11-10T00:27:46.107Z,0
2016-11-10T00:28:55.107Z,0
2016-11-10T00:30:03.791Z,0
2016-11-10T00:31:12.477Z,0
2016-11-10T00:32:21.161Z,0
2016-11-10T00:33:29.856Z,0
2016-11-10T00:34:38.538Z,0
2016-11-10T00:35:47.225Z,0
2016-11-10T00:36:56.222Z,0
2016-11-10T00:38:04.912Z,0
2016-11-10T00:39:13.596Z,0
2016-11-10T00:40:22.278Z,0
2016-11-10T00:41:30.964Z,0
2016-11-10T00:42:39.651Z,0
2016-11-10T00:43:48.335Z,0
2016-11-10T00:44:57.023Z,0
2016-11-10T00:46:05.714Z,0
2016-11-10T00:47:14.402Z,0
2016-11-10T00:48:23.084Z,0
2016-11-10T00:49:31.776Z,0
2016-11-10T00:50:40.511Z,0
2016-11-10T00:51:49.199Z,0
2016-11-10T00:52:57.886Z,0
2016-11-10T00:54:06.574Z,0
2016-11-10T00:55:15.264Z,0
2016-11-10T00:56:23.953Z,0
2016-11-10T00:57:32.643Z,0
2016-11-10T00:58:41.331Z,0
2016-11-10T00:59:50.019Z,0
2016-11-10T01:00:58.703Z,0
2016-11-10T01:02:07.415Z,0
2016-11-10T01:03:16.100Z,0
2016-11-10T01:04:25.096Z,0
2016-11-10T01:05:33.825Z,0
2016-11-10T01:06:42.514Z,0
2016-11-10T01:07:51.520Z,0
2016-11-10T01:09:00.208Z,0
2016-11-10T01:10:08.895Z,0
2016-11-10T01:11:17.582Z,0
2016-11-10T01:12:26.266Z,0
2016-11-10T01:13:34.958Z,0
2016-11-10T01:14:43.646Z,0
2016-11-10T01:15:52.338Z,0
2016-11-10T01:17:01.063Z,0
2016-11-10T01:18:09.754Z,0
2016-11-10T01:19:18.444Z,0
2016-11-10T01:20:27.171Z,0
2016-11-10T01:21:35.859Z,0
2016-11-10T01:22:44.549Z,0
2016-11-10T01:23:53.243Z,0
2016-11-10T01:25:01.927Z,0
2016-11-10T01:26:10.615Z,0
2016-11-10T01:27:19.304Z,0
2016-11-10T01:28:27.991Z,0
2016-11-10T01:29:36.675Z,0
2016-11-10T01:30:45.357Z,0
2016-11-10T01:31:54.044Z,0
2016-11-10T01:33:02.733Z,0
2016-11-10T01:34:11.419Z,0
2016-11-10T01:35:20.423Z,0
2016-11-10T01:36:29.109Z,0
2016-11-10T01:37:37.794Z,0
2016-11-10T01:38:46.483Z,0
2016-11-10T01:39:55.166Z,0
2016-11-10T01:41:03.869Z,0
2016-11-10T01:42:12.881Z,0
2016-11-10T01:43:21.562Z,0
2016-11-10T01:44:30.246Z,0
2016-11-10T01:45:38.931Z,0
2016-11-10T01:46:47.611Z,0
2016-11-10T01:47:56.299Z,0
2016-11-10T01:49:05.022Z,0
2016-11-10T01:50:13.707Z,0
2016-11-10T01:51:22.395Z,0
2016-11-10T01:52:31.095Z,0
2016-11-10T01:53:39.809Z,0
2016-11-10T01:54:48.500Z,0
2016-11-10T01:55:57.195Z,0
2016-11-10T01:57:05.880Z,0
2016-11-10T01:58:14.569Z,0
2016-11-10T01:59:23.254Z,0
2016-11-10T02:00:31.943Z,0
2016-11-10T02:01:40.628Z,0
2016-11-10T02:02:49.312Z,0
2016-11-10T02:03:57.999Z,0
2016-11-10T02:05:06.682Z,0
2016-11-10T02:06:15.374Z,0
2016-11-10T02:07:24.066Z,0
2016-11-10T02:08:32.751Z,0
2016-11-10T02:09:41.438Z,0
2016-11-10T02:10:50.118Z,0
2016-11-10T02:11:58.810Z,0
2016-11-10T02:13:07.496Z,0
2016-11-10T02:14:16.193Z,0
2016-11-10T02:15:24.882Z,0
2016-11-10T02:16:33.609Z,0
2016-11-10T02:17:42.299Z,0
2016-11-10T02:18:50.985Z,0
2016-11-10T02:19:59.702Z,0
2016-11-10T02:21:08.391Z,0
2016-11-10T02:22:17.079Z,0
2016-11-10T02:23:25.772Z,0
2016-11-10T02:24:34.460Z,0
2016-11-10T02:25:43.146Z,0
2016-11-10T02:26:51.834Z,0
2016-11-10T02:28:00.521Z,0
2016-11-10T02:29:09.204Z,0
2016-11-10T02:30:17.887Z,0
2016-11-10T02:31:26.574Z,0
2016-11-10T02:32:35.268Z,0
2016-11-10T02:33:43.956Z,0
2016-11-10T02:34:52.645Z,0
2016-11-10T02:36:01.327Z,0
2016-11-10T02:37:10.050Z,0
2016-11-10T02:38:18.730Z,0
2016-11-10T02:39:27.415Z,0
2016-11-10T02:40:36.125Z,0
2016-11-10T02:41:44.808Z,0
2016-11-10T02:42:53.498Z,0
2016-11-10T02:44:02.188Z,0
2016-11-10T02:45:10.879Z,0
2016-11-10T02:46:19.591Z,0
2016-11-10T02:47:28.274Z,0
2016-11-10T02:48:36.965Z,0
2016-11-10T02:49:45.649Z,0
2016-11-10T02:50:54.343Z,0
2016-11-10T02:52:03.029Z,0
2016-11-10T02:53:11.718Z,0
2016-11-10T02:54:20.401Z,0
2016-11-10T02:55:29.093Z,0
2016-11-10T02:56:37.776Z,0
2016-11-10T02:57:46.473Z,0
2016-11-10T02:58:55.157Z,0
2016-11-10T03:00:03.844Z,0
2016-11-10T03:01:12.868Z,0
2016-11-10T03:02:21.556Z,0
2016-11-10T03:03:30.243Z,0
2016-11-10T03:04:38.934Z,0
2016-11-10T03:05:47.624Z,0
2016-11-10T03:06:56.304Z,0
2016-11-10T03:08:05.003Z,0
2016-11-10T03:09:13.706Z,0
2016-11-10T03:10:22.392Z,0
2016-11-10T03:11:31.428Z,0
2016-11-10T03:12:40.116Z,0
2016-11-10T03:13:49.122Z,0
2016-11-10T03:14:57.815Z,0
2016-11-10T03:16:06.497Z,0
2016-11-10T03:17:15.183Z,0
2016-11-10T03:18:23.867Z,0
2016-11-10T03:19:32.553Z,0
2016-11-10T03:20:41.284Z,0
2016-11-10T03:21:49.970Z,0
2016-11-10T03:22:58.680Z,0
2016-11-10T03:24:07.364Z,0
2016-11-10T03:25:16.046Z,0
2016-11-10T03:26:24.729Z,0
2016-11-10T03:27:33.448Z,0
2016-11-10T03:28:42.138Z,0
2016-11-10T03:29:50.863Z,0
2016-11-10T03:30:59.547Z,0
2016-11-10T03:32:08.231Z,0
2016-11-10T03:33:16.915Z,0
2016-11-10T03:34:25.632Z,0
2016-11-10T03:35:34.319Z,0
2016-11-10T03:36:43.323Z,0
2016-11-10T03:37:52.007Z,0
2016-11-10T03:39:00.692Z,0
2016-11-10T03:40:09.687Z,0
2016-11-10T03:41:18.374Z,0
2016-11-10T03:42:27.067Z,0
2016-11-10T03:43:35.749Z,0
2016-11-10T03:44:44.435Z,0
2016-11-10T03:45:53.118Z,0
2016-11-10T03:47:01.812Z,0
2016-11-10T03:48:10.500Z,0
2016-11-10T03:49:19.195Z,0
2016-11-10T03:50:27.881Z,0
2016-11-10T03:51:36.573Z,0
2016-11-10T03:52:45.300Z,0
2016-11-10T03:53:53.980Z,0
2016-11-10T03:55:02.988Z,0
2016-11-10T03:56:12.000Z,0
2016-11-10T03:57:20.685Z,0
2016-11-10T03:58:29.372Z,0
2016-11-10T03:59:38.059Z,0
2016-11-10T04:00:46.752Z,0
2016-11-10T04:01:55.434Z,0
2016-11-10T04:03:04.124Z,0
2016-11-10T04:04:12.846Z,0
2016-11-10T04:05:21.533Z,0
2016-11-10T04:06:30.213Z,0
2016-11-10T04:07:38.944Z,0
2016-11-10T04:08:47.942Z,0
2016-11-10T04:09:56.629Z,0
2016-11-10T04:11:05.348Z,0
2016-11-10T04:12:14.029Z,0
2016-11-10T04:13:22.714Z,0
2016-11-10T04:14:31.396Z,0
2016-11-10T04:15:40.088Z,0
2016-11-10T04:16:48.777Z,0
2016-11-10T04:17:57.496Z,0
2016-11-10T04:19:06.193Z,0
2016-11-10T04:20:14.881Z,0
2016-11-10T04:21:23.577Z,0
2016-11-10T04:22:32.261Z,0
2016-11-10T04:23:40.946Z,0
2016-11-10T04:24:49.635Z,0
2016-11-10T04:25:58.324Z,0
2016-11-10T04:27:07.011Z,0
2016-11-10T04:28:15.702Z,0
2016-11-10T04:29:24.390Z,0
2016-11-10T04:30:33.079Z,0
2016-11-10T04:31:41.773Z,0
2016-11-10T04:32:50.459Z,0
2016-11-10T04:33:59.147Z,0
2016-11-10T04:35:07.838Z,0
2016-11-10T04:36:16.522Z,0
2016-11-10T04:37:25.524Z,0
2016-11-10T04:38:34.208Z,0
2016-11-10T04:39:42.891Z,0
2016-11-10T04:40:51.578Z,0
2016-11-10T04:42:00.276Z,0
2016-11-10T04:43:08.965Z,0
2016-11-10T04:44:17.684Z,0
2016-11-10T04:45:26.370Z,0
2016-11-10T04:46:35.090Z,0
2016-11-10T04:47:43.779Z,0
2016-11-10T04:48:52.465Z,0
2016-11-10T04:50:01.463Z,0
2016-11-10T04:51:10.148Z,0
2016-11-10T04:52:18.836Z,0
2016-11-10T04:53:27.521Z,0
2016-11-10T04:54:36.206Z,0
2016-11-10T04:55:44.889Z,0
2016-11-10T04:56:53.572Z,0
2016-11-10T04:58:02.261Z,0
2016-11-10T04:59:10.939Z,0
2016-11-10T05:00:19.626Z,0
2016-11-10T05:01:28.308Z,0
2016-11-10T05:02:36.990Z,0
2016-11-10T05:03:45.684Z,0
2016-11-10T05:04:54.370Z,0
2016-11-10T05:06:03.057Z,0
2016-11-10T05:07:11.744Z,0
2016-11-10T05:08:20.433Z,0
2016-11-10T05:09:29.117Z,0
2016-11-10T05:10:37.811Z,0
2016-11-10T05:11:46.493Z,0
2016-11-10T05:12:55.175Z,0
2016-11-10T05:14:03.893Z,0
2016-11-10T05:15:12.577Z,0
2016-11-10T05:16:21.265Z,0
2016-11-10T05:17:29.952Z,0
2016-11-10T05:18:38.640Z,0
2016-11-10T05:19:47.326Z,0
2016-11-10T05:20:56.012Z,0
2016-11-10T05:22:04.697Z,0
2016-11-10T05:23:13.385Z,0
2016-11-10T05:24:22.074Z,0
2016-11-10T05:25:30.759Z,0
2016-11-10T05:26:39.455Z,0
2016-11-10T05:27:48.158Z,0
2016-11-10T05:28:56.846Z,0
2016-11-10T05:30:05.539Z,0
2016-11-10T05:31:14.225Z,0
2016-11-10T05:32:22.910Z,0
2016-11-10T05:33:31.590Z,0
2016-11-10T05:34:40.285Z,0
2016-11-10T05:35:49.283Z,0
2016-11-10T05:36:57.973Z,0
2016-11-10T05:38:06.660Z,0
2016-11-10T05:39:15.348Z,0
2016-11-10T05:40:24.054Z,0
2016-11-10T05:41:32.742Z,0
2016-11-10T05:42:41.462Z,0
2016-11-10T05:43:50.149Z,0
2016-11-10T05:44:58.835Z,0
2016-11-10T05:46:07.523Z,0
2016-11-10T05:47:16.214Z,0
2016-11-10T05:48:24.902Z,0
2016-11-10T05:49:33.587Z,0
2016-11-10T05:50:42.273Z,0
2016-11-10T05:51:50.961Z,0
2016-11-10T05:52:59.645Z,0
2016-11-10T05:54:08.327Z,0
2016-11-10T05:55:17.039Z,0
2016-11-10T05:56:25.716Z,0
2016-11-10T05:57:34.406Z,0
2016-11-10T05:58:43.106Z,0
2016-11-10T05:59:51.793Z,0
2016-11-10T06:01:00.481Z,0
2016-11-10T06:02:09.164Z,0
2016-11-10T06:03:17.853Z,0
2016-11-10T06:04:26.539Z,0
2016-11-10T06:05:35.225Z,0
2016-11-10T06:06:43.948Z,0
2016-11-10T06:07:52.647Z,0
2016-11-10T06:09:01.334Z,0
2016-11-10T06:10:10.021Z,0
2016-11-10T06:11:18.710Z,0
2016-11-10T06:12:27.397Z,0
2016-11-10T06:13:36.131Z,0
2016-11-10T06:14:44.828Z,0
2016-11-10T06:15:53.511Z,0
2016-11-10T06:17:02.197Z,0
2016-11-10T06:18:10.882Z,0
2016-11-10T06:19:19.566Z,0
2016-11-10T06:20:28.258Z,0
2016-11-10T06:21:36.951Z,4
2016-11-10T06:22:45.639Z,4
2016-11-10T06:23:54.331Z,4
2016-11-10T06:25:03.016Z,4
2016-11-10T06:26:11.704Z,0
2016-11-10T06:27:20.385Z,4
2016-11-10T06:28:29.074Z,4
2016-11-10T06:29:37.765Z,4
2016-11-10T06:30:46.779Z,4
2016-11-10T06:31:55.469Z,4
2016-11-10T06:33:04.158Z,8
2016-11-10T06:34:12.838Z,8
2016-11-10T06:35:22.143Z,8
2016-11-10T06:36:31.124Z,12
2016-11-10T06:37:40.129Z,12
2016-11-10T06:38:49.245Z,12
2016-11-10T06:39:58.173Z,16
2016-11-10T06:41:07.196Z,20
2016-11-10T06:42:15.955Z,20
2016-11-10T06:43:24.639Z,24
2016-11-10T06:44:33.326Z,28
2016-11-10T06:45:42.010Z,32
2016-11-10T06:46:50.734Z,36
2016-11-10T06:47:59.527Z,40
2016-11-10T06:49:08.225Z,48
2016-11-10T06:50:16.911Z,48
2016-11-10T06:51:25.910Z,60
2016-11-10T06:52:34.603Z,64
2016-11-10T06:53:43.288Z,72
2016-11-10T06:54:52.300Z,76
2016-11-10T06:56:00.998Z,84
2016-11-10T06:57:09.714Z,88
2016-11-10T06:58:18.398Z,100
2016-11-10T06:59:27.098Z,108
2016-11-10T07:00:35.789Z,120
2016-11-10T07:01:44.499Z,132
2016-11-10T07:02:53.185Z,144
2016-11-10T07:04:01.870Z,156
2016-11-10T07:05:10.563Z,172
2016-11-10T07:06:19.249Z,184
2016-11-10T07:07:28.289Z,196
2016-11-10T07:08:37.067Z,220
2016-11-10T07:09:45.792Z,236
2016-11-10T07:10:54.477Z,248
2016-11-10T07:12:03.162Z,268
2016-11-10T07:13:11.852Z,276
2016-11-10T07:14:20.543Z,288
2016-11-10T07:15:29.231Z,304
2016-11-10T07:16:37.915Z,312
2016-11-10T07:17:46.603Z,332
2016-11-10T07:18:55.301Z,352
2016-11-10T07:20:04.305Z,368
2016-11-10T07:21:12.989Z,384
2016-11-10T07:23:46.439Z,424
2016-11-10T07:24:55.144Z,436
2016-11-10T07:26:03.906Z,452
2016-11-10T07:27:12.594Z,468
2016-11-10T07:28:21.275Z,480
2016-11-10T07:29:29.970Z,484
2016-11-10T07:30:38.665Z,488
2016-11-10T07:31:47.346Z,496
2016-11-10T07:32:56.059Z,508
2016-11-10T07:34:04.793Z,520
2016-11-10T07:35:13.480Z,524
2016-11-10T07:36:22.171Z,528
2016-11-10T07:37:30.866Z,548
2016-11-10T07:38:39.557Z,572
2016-11-10T07:39:48.562Z,596
2016-11-10T07:40:57.255Z,608
2016-11-10T07:42:05.943Z,624
2016-11-10T07:43:14.626Z,636
2016-11-10T07:44:23.313Z,656
2016-11-10T07:45:32.021Z,676
2016-11-10T07:46:40.720Z,700
2016-11-10T07:47:49.407Z,724
2016-11-10T07:48:58.095Z,752
2016-11-10T07:50:06.782Z,788
2016-11-10T07:51:15.477Z,824
2016-11-10T07:52:24.162Z,872
2016-11-10T07:53:32.850Z,916
2016-11-10T07:54:41.536Z,972
2016-11-10T07:55:50.218Z,1020
2016-11-10T07:56:58.903Z,1076
2016-11-10T07:58:07.587Z,1128
2016-11-10T07:59:16.279Z,1180
2016-11-10T08:00:24.968Z,1224
2016-11-10T08:01:33.656Z,1268
2016-11-10T08:02:42.349Z,1324
2016-11-10T08:03:51.036Z,1380
2016-11-10T08:04:59.727Z,1432
2016-11-10T08:06:08.418Z,1464
2016-11-10T08:07:17.104Z,1496
2016-11-10T08:08:25.826Z,1544
2016-11-10T08:09:34.512Z,1588
2016-11-10T08:10:43.203Z,1632
2016-11-10T08:11:51.887Z,1680
2016-11-10T08:13:00.575Z,1720
2016-11-10T08:14:09.623Z,1740
2016-11-10T08:15:18.310Z,1736
2016-11-10T08:16:26.997Z,1704
2016-11-10T08:17:35.685Z,1668
2016-11-10T08:18:44.412Z,1652
2016-11-10T08:19:53.095Z,1652
2016-11-10T08:21:01.785Z,1668
2016-11-10T08:22:10.475Z,1688
2016-11-10T08:23:19.161Z,1712
2016-11-10T08:24:27.845Z,1732
2016-11-10T08:25:36.530Z,1756
2016-11-10T08:26:45.219Z,1784
2016-11-10T08:27:53.906Z,1816
2016-11-10T08:29:02.589Z,1844
2016-11-10T08:30:11.293Z,1880
2016-11-10T08:31:19.985Z,1904
2016-11-10T08:32:28.672Z,1936
2016-11-10T08:33:37.361Z,1960
2016-11-10T08:34:46.084Z,1996
2016-11-10T08:35:54.786Z,2032
2016-11-10T08:37:03.546Z,2072
2016-11-10T08:38:12.557Z,2104
2016-11-10T08:39:21.246Z,2120
2016-11-10T08:40:29.935Z,2128
2016-11-10T08:41:38.626Z,2128
2016-11-10T08:42:47.318Z,2124
2016-11-10T08:43:56.045Z,2128
2016-11-10T08:45:04.760Z,2144
2016-11-10T08:46:13.447Z,2164
2016-11-10T08:47:22.136Z,2184
2016-11-10T08:48:30.820Z,2204
2016-11-10T08:49:39.829Z,2220
2016-11-10T08:50:48.525Z,2240
2016-11-10T08:51:57.221Z,2272
2016-11-10T08:53:05.911Z,2296
2016-11-10T08:54:14.601Z,2316
2016-11-10T08:55:23.288Z,2340
2016-11-10T08:56:31.976Z,2372
2016-11-10T08:57:40.669Z,2404
2016-11-10T08:58:49.353Z,2448
2016-11-10T08:59:58.043Z,2508
2016-11-10T09:01:06.762Z,2572
2016-11-10T09:02:15.456Z,2636
2016-11-10T09:03:24.147Z,2688
2016-11-10T09:04:32.837Z,2732
2016-11-10T09:05:41.563Z,2784
2016-11-10T09:06:50.569Z,2840
2016-11-10T09:07:59.256Z,2908
2016-11-10T09:09:07.944Z,2976
2016-11-10T09:10:16.643Z,3044
2016-11-10T09:11:25.329Z,3108
2016-11-10T09:12:34.333Z,3156
2016-11-10T09:13:43.032Z,3172
2016-11-10T09:14:51.722Z,3172
2016-11-10T09:16:00.411Z,3176
2016-11-10T09:17:09.100Z,3188
2016-11-10T09:18:17.828Z,3204
2016-11-10T09:19:26.513Z,3228
2016-11-10T09:20:35.204Z,3240
2016-11-10T09:21:43.892Z,3244
2016-11-10T09:22:52.581Z,3252
2016-11-10T09:24:01.291Z,3276
2016-11-10T09:25:09.978Z,3300
2016-11-10T09:26:18.670Z,3304
2016-11-10T09:27:27.356Z,3312
2016-11-10T09:28:36.046Z,3312
2016-11-10T09:29:44.736Z,3304
2016-11-10T09:30:53.447Z,3316
2016-11-10T09:32:02.133Z,3332
2016-11-10T09:33:10.828Z,3344
2016-11-10T09:34:19.521Z,3348
2016-11-10T09:35:28.207Z,3352
2016-11-10T09:36:37.216Z,3368
2016-11-10T09:37:45.898Z,3392
2016-11-10T09:38:54.591Z,3404
2016-11-10T09:40:03.327Z,3424
2016-11-10T09:41:12.015Z,3440
2016-11-10T09:42:20.708Z,3452
2016-11-10T09:43:29.396Z,3460
2016-11-10T09:44:38.081Z,3456
2016-11-10T09:45:46.767Z,3460
2016-11-10T09:46:55.455Z,3468
2016-11-10T09:48:04.142Z,3472
2016-11-10T09:49:12.828Z,3480
2016-11-10T09:50:21.511Z,3488
2016-11-10T09:51:30.299Z,3512
2016-11-10T09:52:38.991Z,3544
2016-11-10T09:53:47.679Z,3556
2016-11-10T09:54:56.366Z,3564
2016-11-10T09:56:05.385Z,3576
2016-11-10T09:57:14.123Z,3592
2016-11-10T09:58:22.810Z,3624
2016-11-10T09:59:31.497Z,3676
2016-11-10T10:00:40.180Z,3740
2016-11-10T10:01:48.868Z,3828
2016-11-10T10:02:57.807Z,3956
2016-11-10T10:04:06.811Z,4116
2016-11-10T10:05:15.505Z,4308
2016-11-10T10:06:24.222Z,4540
2016-11-10T10:07:32.914Z,4804
2016-11-10T10:08:41.602Z,5084
2016-11-10T10:09:50.305Z,5364
2016-11-10T10:10:59.015Z,5608
2016-11-10T10:12:07.703Z,5788
2016-11-10T10:13:16.725Z,5948
2016-11-10T10:14:25.410Z,6176
2016-11-10T10:15:34.114Z,6392
2016-11-10T10:16:42.803Z,6484
2016-11-10T10:17:51.490Z,6452
2016-11-10T10:19:00.177Z,6372
2016-11-10T10:20:08.868Z,6288
2016-11-10T10:21:17.557Z,6252
2016-11-10T10:22:26.248Z,6224
2016-11-10T10:23:34.972Z,6208
2016-11-10T10:24:43.661Z,6212
2016-11-10T10:25:52.385Z,6304
2016-11-10T10:27:01.076Z,6328
2016-11-10T10:28:09.765Z,6272
2016-11-10T10:29:18.485Z,6184
2016-11-10T10:30:27.175Z,6120
2016-11-10T10:31:35.875Z,6092
2016-11-10T10:32:44.570Z,6104
2016-11-10T10:33:53.260Z,6104
2016-11-10T10:35:01.947Z,6056
2016-11-10T10:36:10.634Z,5956
2016-11-10T10:37:19.323Z,5828
2016-11-10T10:38:28.009Z,5696
2016-11-10T10:39:37.043Z,5544
2016-11-10T10:40:46.059Z,5452
2016-11-10T10:41:54.746Z,5420
2016-11-10T10:43:03.435Z,5392
2016-11-10T10:44:12.118Z,5348
2016-11-10T10:45:20.811Z,5256
2016-11-10T10:46:29.502Z,5080
2016-11-10T10:47:38.188Z,4892
2016-11-10T10:48:46.889Z,4768
2016-11-10T10:49:55.579Z,4700
2016-11-10T10:51:04.276Z,4656
2016-11-10T10:52:12.965Z,4636
2016-11-10T10:53:21.659Z,4644
2016-11-10T10:54:30.352Z,4656
2016-11-10T10:55:39.040Z,4688
2016-11-10T10:56:47.727Z,4748
2016-11-10T10:57:56.415Z,4828
2016-11-10T10:59:05.487Z,4872
2016-11-10T11:00:14.181Z,4852
2016-11-10T11:01:22.875Z,4848
2016-11-10T11:02:31.569Z,4764
2016-11-10T11:03:40.257Z,4648
2016-11-10T11:04:48.948Z,4528
2016-11-10T11:05:57.637Z,4448
2016-11-10T11:07:06.324Z,4360
2016-11-10T11:08:15.013Z,4264
2016-11-10T11:09:23.703Z,4192
2016-11-10T11:10:32.394Z,4128
2016-11-10T11:11:41.080Z,4100
2016-11-10T11:12:49.769Z,4108
2016-11-10T11:13:58.461Z,4112
2016-11-10T11:15:07.145Z,4108
2016-11-10T11:16:15.837Z,4140
2016-11-10T11:17:24.523Z,4164
2016-11-10T11:18:33.212Z,4148
2016-11-10T11:19:41.907Z,4116
2016-11-10T11:20:50.593Z,4084
2016-11-10T11:21:59.280Z,4028
2016-11-10T11:23:07.972Z,3992
2016-11-10T11:24:16.657Z,3968
2016-11-10T11:25:25.348Z,3920
2016-11-10T11:26:34.030Z,3876
2016-11-10T11:27:43.037Z,3840
2016-11-10T11:28:51.732Z,3816
2016-11-10T11:30:00.413Z,3836
2016-11-10T11:31:09.108Z,3908
2016-11-10T11:32:17.793Z,3984
2016-11-10T11:33:26.478Z,4052
2016-11-10T11:34:35.214Z,4096
2016-11-10T11:35:43.913Z,4112
2016-11-10T11:36:52.921Z,4148
2016-11-10T11:38:01.623Z,4184
2016-11-10T11:39:10.321Z,4232
2016-11-10T11:40:19.016Z,4292
2016-11-10T11:41:27.705Z,4360
2016-11-10T11:42:36.393Z,4408
2016-11-10T11:43:45.085Z,4420
2016-11-10T11:44:53.770Z,4392
2016-11-10T11:46:02.452Z,4376
2016-11-10T11:47:11.137Z,4400
2016-11-10T11:48:19.876Z,4480
2016-11-10T11:49:28.566Z,4596
2016-11-10T11:50:37.253Z,4700
2016-11-10T11:51:45.946Z,4820
2016-11-10T11:52:54.631Z,4932
2016-11-10T11:54:03.318Z,4996
2016-11-10T11:55:12.004Z,4984
2016-11-10T11:56:20.694Z,4964
2016-11-10T11:57:29.379Z,4956
2016-11-10T11:58:38.109Z,4944
2016-11-10T11:59:46.803Z,4936
2016-11-10T12:00:55.495Z,4972
2016-11-10T12:02:04.243Z,5036
2016-11-10T12:03:13.297Z,5056
2016-11-10T12:04:21.985Z,5080
2016-11-10T12:05:30.681Z,5156
2016-11-10T12:06:39.369Z,5216
2016-11-10T12:07:48.056Z,5192
2016-11-10T12:08:56.741Z,5040
2016-11-10T12:10:05.429Z,4900
2016-11-10T12:11:14.119Z,4784
2016-11-10T12:12:22.807Z,4740
2016-11-10T12:13:31.502Z,4728
2016-11-10T12:14:40.195Z,4740
2016-11-10T12:15:48.878Z,4720
2016-11-10T12:16:57.571Z,4672
2016-11-10T12:18:06.267Z,4552
2016-11-10T12:19:14.956Z,4444
2016-11-10T12:20:23.655Z,4376
2016-11-10T12:21:32.339Z,4332
2016-11-10T12:22:41.032Z,4268
2016-11-10T12:23:49.721Z,4224
2016-11-10T12:24:58.408Z,4172
2016-11-10T12:26:07.104Z,4100
2016-11-10T12:27:15.794Z,4040
2016-11-10T12:28:24.507Z,3996
2016-11-10T12:29:33.195Z,3988
2016-11-10T12:30:41.885Z,3892
2016-11-10T12:31:50.578Z,3840
2016-11-10T12:32:59.264Z,3732
2016-11-10T12:34:07.956Z,3612
2016-11-10T12:35:16.642Z,3500
2016-11-10T12:36:25.328Z,3420
2016-11-10T12:37:34.016Z,3340
2016-11-10T12:38:42.703Z,3232
2016-11-10T12:39:51.390Z,3112
2016-11-10T12:41:00.072Z,3008
2016-11-10T12:42:08.756Z,2940
2016-11-10T12:43:17.445Z,2928
2016-11-10T12:44:26.131Z,3016
2016-11-10T12:45:34.855Z,3224
2016-11-10T12:46:43.541Z,3432
2016-11-10T12:47:52.235Z,3552
2016-11-10T12:49:00.952Z,3624
2016-11-10T12:50:09.641Z,3676
2016-11-10T12:51:18.354Z,3688
2016-11-10T12:52:27.040Z,3620
2016-11-10T12:53:35.726Z,3556
2016-11-10T12:54:44.410Z,3520
2016-11-10T12:55:53.126Z,3504
2016-11-10T12:57:01.822Z,3488
2016-11-10T12:58:10.826Z,3480
2016-11-10T12:59:19.512Z,3464
2016-11-10T13:00:28.199Z,3440
2016-11-10T13:01:36.884Z,3396
2016-11-10T13:02:45.568Z,3360
2016-11-10T13:03:54.257Z,3316
2016-11-10T13:05:02.942Z,3256
2016-11-10T13:06:11.640Z,3240
2016-11-10T13:07:20.330Z,3240
2016-11-10T13:08:29.015Z,3212
2016-11-10T13:09:38.115Z,3192
2016-11-10T13:10:46.804Z,3184
2016-11-10T13:11:55.486Z,3124
2016-11-10T13:13:04.233Z,3028
2016-11-10T13:14:12.921Z,2932
2016-11-10T13:15:21.606Z,2852
2016-11-10T13:16:30.302Z,2784
2016-11-10T13:17:38.997Z,2744
2016-11-10T13:18:47.684Z,2720
2016-11-10T13:19:56.380Z,2672
2016-11-10T13:21:05.071Z,2576
2016-11-10T13:22:13.761Z,2492
2016-11-10T13:23:22.494Z,2420
2016-11-10T13:24:31.176Z,2364
2016-11-10T13:25:39.870Z,2316
2016-11-10T13:26:48.851Z,2264
2016-11-10T13:27:57.557Z,2204
2016-11-10T13:29:06.242Z,2152
2016-11-10T13:30:14.927Z,2100
2016-11-10T13:31:23.941Z,2044
2016-11-10T13:32:32.623Z,1988
2016-11-10T13:33:41.307Z,1928
2016-11-10T13:34:49.994Z,1888
2016-11-10T13:35:58.685Z,1868
2016-11-10T13:37:07.375Z,1864
2016-11-10T13:38:16.075Z,1872
2016-11-10T13:39:24.762Z,1860
2016-11-10T13:40:33.451Z,1844
2016-11-10T13:41:42.142Z,1800
2016-11-10T13:42:50.830Z,1756
2016-11-10T13:43:59.572Z,1724
2016-11-10T13:45:08.260Z,1692
2016-11-10T13:46:16.950Z,1648
2016-11-10T13:47:25.635Z,1596
2016-11-10T13:48:34.332Z,1560
2016-11-10T13:49:43.022Z,1540
2016-11-10T13:50:51.709Z,1520
2016-11-10T13:52:00.398Z,1504
2016-11-10T13:53:09.087Z,1496
2016-11-10T13:54:17.799Z,1484
2016-11-10T13:55:26.489Z,1460
2016-11-10T13:56:35.181Z,1444
2016-11-10T13:57:43.874Z,1416
2016-11-10T13:58:52.573Z,1392
2016-11-10T14:00:01.262Z,1380
2016-11-10T14:01:09.958Z,1348
2016-11-10T14:02:18.649Z,1300
2016-11-10T14:03:27.331Z,1252
2016-11-10T14:04:36.049Z,1212
2016-11-10T14:05:44.756Z,1184
2016-11-10T14:06:53.448Z,1148
2016-11-10T14:08:02.130Z,1120
2016-11-10T14:09:10.819Z,1088
2016-11-10T14:10:19.504Z,1060
2016-11-10T14:11:28.196Z,1028
2016-11-10T14:12:36.883Z,1000
2016-11-10T14:13:45.575Z,972
2016-11-10T14:14:54.580Z,936
2016-11-10T14:16:03.272Z,904
2016-11-10T14:17:11.964Z,872
2016-11-10T14:18:20.655Z,836
2016-11-10T14:19:29.346Z,796
2016-11-10T14:20:38.035Z,764
2016-11-10T14:21:46.721Z,736
2016-11-10T14:22:55.452Z,712
2016-11-10T14:24:04.137Z,680
2016-11-10T14:25:12.820Z,656
2016-11-10T14:26:21.505Z,632
2016-11-10T14:27:30.191Z,608
2016-11-10T14:28:38.881Z,584
2016-11-10T14:29:47.562Z,560
2016-11-10T14:30:56.794Z,540
2016-11-10T14:32:05.512Z,516
2016-11-10T14:33:14.206Z,488
2016-11-10T14:34:22.924Z,468
2016-11-10T14:35:31.610Z,444
2016-11-10T14:36:40.302Z,428
2016-11-10T14:37:49.053Z,412
2016-11-10T14:38:57.740Z,392
2016-11-10T14:40:06.425Z,376
2016-11-10T14:41:15.113Z,360
2016-11-10T14:42:23.794Z,348
2016-11-10T14:43:32.478Z,328
2016-11-10T14:44:41.162Z,316
2016-11-10T14:45:49.857Z,300
2016-11-10T14:46:58.586Z,280
2016-11-10T14:48:07.268Z,268
2016-11-10T14:49:15.954Z,252
2016-11-10T14:50:24.639Z,236
2016-11-10T14:51:33.321Z,228
2016-11-10T14:52:42.012Z,216
2016-11-10T14:53:51.017Z,204
2016-11-10T14:54:59.700Z,192
2016-11-10T14:56:08.401Z,184
2016-11-10T14:57:17.086Z,168
2016-11-10T14:58:25.774Z,160
2016-11-10T14:59:34.458Z,152
2016-11-10T15:00:43.149Z,140
2016-11-10T15:01:51.833Z,128
2016-11-10T15:03:00.517Z,124
2016-11-10T15:04:09.209Z,112
2016-11-10T15:05:17.898Z,104
2016-11-10T15:06:26.593Z,96
2016-11-10T15:07:35.279Z,84
2016-11-10T15:08:43.961Z,80
2016-11-10T15:09:52.648Z,72
2016-11-10T15:11:01.333Z,64
2016-11-10T15:12:10.024Z,56
2016-11-10T15:13:18.708Z,48
2016-11-10T15:14:27.393Z,44
2016-11-10T15:15:36.075Z,40
2016-11-10T15:16:44.761Z,32
2016-11-10T15:17:53.444Z,28
2016-11-10T15:19:02.126Z,28
2016-11-10T15:20:10.816Z,24
2016-11-10T15:21:19.812Z,20
2016-11-10T15:22:28.500Z,16
2016-11-10T15:23:37.509Z,12
2016-11-10T15:24:46.197Z,12
2016-11-10T15:25:54.891Z,8
2016-11-10T15:27:03.573Z,8
2016-11-10T15:28:12.259Z,8
2016-11-10T15:29:20.951Z,8
2016-11-10T15:30:29.667Z,4
2016-11-10T15:31:38.351Z,8
2016-11-10T15:32:47.041Z,4
2016-11-10T15:33:55.725Z,4
2016-11-10T15:35:04.462Z,4
2016-11-10T15:36:13.151Z,4
2016-11-10T15:37:22.145Z,0
2016-11-10T15:38:30.830Z,0
2016-11-10T15:39:39.517Z,4
2016-11-10T15:40:48.208Z,4
2016-11-10T15:41:56.904Z,4
2016-11-10T15:43:05.609Z,4
2016-11-10T15:44:14.308Z,0
2016-11-10T15:45:22.996Z,0
2016-11-10T15:46:31.682Z,0
2016-11-10T15:47:40.369Z,0
2016-11-10T15:48:49.695Z,0
2016-11-10T15:49:58.390Z,0
2016-11-10T15:51:07.072Z,0
2016-11-10T15:52:15.758Z,0
2016-11-10T15:53:24.445Z,0
2016-11-10T15:54:33.131Z,0
2016-11-10T15:55:42.129Z,0
2016-11-10T15:56:50.816Z,0
2016-11-10T15:57:59.503Z,0
2016-11-10T15:59:08.187Z,0
2016-11-10T16:00:16.871Z,0
2016-11-10T16:01:25.557Z,0
2016-11-10T16:02:34.237Z,0
2016-11-10T16:03:43.241Z,0
2016-11-10T16:04:51.930Z,0
2016-11-10T16:06:00.624Z,0